Time;durP1;ratioP1;P1;durP2;ratioP2;P2;SDS_P1;SDS_P2;PMS_P1;PMS_P2;Temp;Humidity;BMP_temperature;BMP_pressure;BME280_temperature;BME280_humidity;BME280_pressure;Samples;Min_cycle;Max_cycle;Signal;HPM_P1;HPM_P2
2021/08/15 00:02:01;;;;;;;9.98;3.55;;;19.90;78.40;;;;;;5097612;28;20114;-66
2021/08/15 00:04:28;;;;;;;5.22;3.22;;;20.00;77.90;;;;;;5099255;28;20060;-66
2021/08/15 00:06:54;;;;;;;9.32;4.85;;;20.10;77.90;;;;;;5079873;28;20062;-66
2021/08/15 00:09:19;;;;;;;7.10;3.33;;;20.20;77.40;;;;;;5096770;28;20398;-66
2021/08/15 00:11:48;;;;;;;5.88;3.45;;;20.30;77.30;;;;;;5096674;28;20111;-66
2021/08/15 00:14:14;;;;;;;8.38;3.92;;;20.50;77.00;;;;;;5098116;28;20039;-66
2021/08/15 00:16:39;;;;;;;7.00;3.53;;;20.50;76.80;;;;;;5097232;28;20163;-66
2021/08/15 00:19:05;;;;;;;7.93;4.30;;;20.50;76.50;;;;;;5097636;28;20445;-66
2021/08/15 00:21:33;;;;;;;6.70;3.78;;;20.60;76.40;;;;;;5097697;28;20059;-66
2021/08/15 00:23:59;;;;;;;7.68;3.65;;;20.60;76.40;;;;;;5080863;28;20107;-66
2021/08/15 00:26:25;;;;;;;6.50;3.33;;;20.60;76.30;;;;;;5096460;28;20051;-66
2021/08/15 00:28:51;;;;;;;7.47;3.97;;;20.70;76.20;;;;;;5097373;28;20383;-66
2021/08/15 00:31:17;;;;;;;11.73;5.00;;;20.70;75.90;;;;;;5096888;28;20063;-66
2021/08/15 00:33:43;;;;;;;6.93;3.50;;;20.80;75.40;;;;;;5081998;28;20062;-68
2021/08/15 00:36:08;;;;;;;6.13;3.35;;;20.80;75.40;;;;;;5083156;28;20809;-66
2021/08/15 00:38:34;;;;;;;8.32;4.10;;;20.90;75.30;;;;;;5100837;28;20554;-66
2021/08/15 00:41:01;;;;;;;7.03;3.40;;;20.90;75.10;;;;;;5101577;28;20544;-66
2021/08/15 00:43:31;;;;;;;9.68;5.03;;;20.90;75.30;;;;;;5102878;28;20036;-66
2021/08/15 00:45:58;;;;;;;7.40;3.58;;;20.80;75.20;;;;;;5100000;28;20046;-66
2021/08/15 00:48:24;;;;;;;8.88;3.92;;;20.90;75.20;;;;;;5100031;28;20043;-66
2021/08/15 00:50:50;;;;;;;8.65;3.80;;;20.90;75.20;;;;;;5101482;28;20042;-65
2021/08/15 00:53:16;;;;;;;14.98;5.60;;;20.90;75.20;;;;;;5101079;28;20032;-65
2021/08/15 00:55:42;;;;;;;5.95;3.88;;;20.90;75.10;;;;;;5100091;28;20519;-65
2021/08/15 00:58:08;;;;;;;7.03;3.50;;;20.80;75.20;;;;;;5099484;28;20048;-64
2021/08/15 01:00:37;;;;;;;5.95;3.70;;;20.90;75.70;;;;;;5100814;28;20081;-64
2021/08/15 01:03:03;;;;;;;8.05;4.35;;;20.90;75.00;;;;;;5102481;28;20047;-64
2021/08/15 01:05:30;;;;;;;13.75;5.38;;;21.00;75.00;;;;;;5099231;28;20654;-65
2021/08/15 01:07:56;;;;;;;10.30;4.72;;;21.00;74.90;;;;;;5100831;28;20092;-64
2021/08/15 01:10:22;;;;;;;4.82;3.50;;;20.90;75.00;;;;;;5100580;28;20028;-65
2021/08/15 01:12:49;;;;;;;6.18;3.42;;;20.90;75.10;;;;;;5081539;28;20042;-65
2021/08/15 01:15:16;;;;;;;8.95;4.10;;;21.00;75.20;;;;;;5100374;28;20059;-66
2021/08/15 01:17:42;;;;;;;8.65;4.68;;;21.00;75.30;;;;;;5099700;28;20047;-65
2021/08/15 01:20:10;;;;;;;6.20;3.22;;;21.00;75.30;;;;;;5101089;28;20063;-65
2021/08/15 01:22:42;;;;;;;9.10;4.32;;;21.00;75.30;;;;;;5083009;28;20039;-66
2021/08/15 01:25:08;;;;;;;7.43;3.83;;;21.00;75.20;;;;;;5099650;28;20404;-66
2021/08/15 01:27:42;;;;;;;5.80;3.30;;;21.00;75.10;;;;;;5088816;28;20048;-65
2021/08/15 01:30:14;;;;;;;5.53;3.60;;;20.90;75.00;;;;;;5065601;28;20433;-66
2021/08/15 01:32:44;;;;;;;7.55;3.90;;;20.90;75.00;;;;;;5100502;28;20406;-66
2021/08/15 01:35:11;;;;;;;6.18;3.50;;;21.00;75.00;;;;;;5099192;28;20028;-66
2021/08/15 01:37:36;;;;;;;13.77;4.50;;;21.00;74.90;;;;;;5100615;28;20040;-66
2021/08/15 01:40:03;;;;;;;7.72;4.70;;;21.10;75.10;;;;;;5101293;28;20040;-65
2021/08/15 01:42:30;;;;;;;7.70;4.35;;;21.00;75.10;;;;;;5099702;28;20061;-65
2021/08/15 01:45:00;;;;;;;6.57;3.42;;;21.10;75.00;;;;;;5098811;28;20136;-65
2021/08/15 01:47:27;;;;;;;6.05;3.47;;;21.10;74.90;;;;;;5099795;28;20073;-65
2021/08/15 01:49:53;;;;;;;5.80;3.33;;;21.10;74.70;;;;;;5099841;28;20039;-64
2021/08/15 01:52:19;;;;;;;5.93;3.33;;;21.10;74.70;;;;;;5100664;28;20032;-65
2021/08/15 01:54:45;;;;;;;7.78;3.40;;;21.20;74.60;;;;;;5079375;28;20457;-64
2021/08/15 01:57:11;;;;;;;9.65;5.28;;;21.20;74.50;;;;;;5082711;28;20071;-65
2021/08/15 01:59:38;;;;;;;9.15;4.72;;;21.20;74.60;;;;;;5065602;28;20558;-65
2021/08/15 02:02:04;;;;;;;6.25;3.35;;;21.20;74.70;;;;;;5099120;28;20115;-65
2021/08/15 02:04:30;;;;;;;10.48;6.25;;;21.10;74.70;;;;;;5100053;28;20072;-65
2021/08/15 02:06:56;;;;;;;6.72;2.92;;;21.00;75.10;;;;;;5080973;28;20036;-65
2021/08/15 02:09:22;;;;;;;9.60;4.97;;;21.00;75.30;;;;;;5099977;28;20035;-65
2021/08/15 02:11:48;;;;;;;6.55;3.13;;;21.00;75.30;;;;;;5099899;28;21001;-66
2021/08/15 02:14:13;;;;;;;6.22;2.97;;;21.00;75.10;;;;;;5099345;28;20985;-66
2021/08/15 02:16:39;;;;;;;7.47;3.38;;;21.10;75.00;;;;;;5099618;28;20116;-65
2021/08/15 02:19:05;;;;;;;6.70;3.55;;;21.10;74.70;;;;;;5077077;28;20408;-66
2021/08/15 02:21:31;;;;;;;6.65;3.38;;;21.10;74.80;;;;;;5098225;28;20032;-66
2021/08/15 02:23:57;;;;;;;6.95;3.50;;;21.20;74.70;;;;;;5099214;28;20047;-66
2021/08/15 02:26:22;;;;;;;6.07;3.42;;;21.20;74.50;;;;;;5098439;28;20040;-66
2021/08/15 02:28:48;;;;;;;7.40;3.58;;;21.20;74.40;;;;;;5099530;28;20058;-66
2021/08/15 02:31:14;;;;;;;6.25;3.25;;;21.30;74.50;;;;;;5100044;28;20068;-65
2021/08/15 02:33:40;;;;;;;5.07;3.10;;;21.30;74.50;;;;;;5098351;28;20051;-65
2021/08/15 02:36:05;;;;;;;5.85;3.28;;;21.30;74.30;;;;;;5099030;28;20035;-65
2021/08/15 02:38:31;;;;;;;6.15;3.80;;;21.30;74.10;;;;;;5100554;28;20032;-65
2021/08/15 02:40:57;;;;;;;7.07;3.38;;;21.30;74.10;;;;;;5099306;28;20040;-66
2021/08/15 02:43:23;;;;;;;5.95;3.40;;;21.30;74.10;;;;;;5099341;28;20035;-66
2021/08/15 02:45:48;;;;;;;8.20;3.40;;;21.30;74.20;;;;;;5079629;28;20503;-66
2021/08/15 02:48:14;;;;;;;6.93;3.80;;;21.30;74.20;;;;;;5098801;28;20801;-67
2021/08/15 02:50:40;;;;;;;5.20;3.58;;;21.30;74.30;;;;;;5097585;28;20036;-66
2021/08/15 02:53:06;;;;;;;5.55;3.60;;;21.30;74.50;;;;;;5081108;28;20081;-66
2021/08/15 02:55:32;;;;;;;6.32;3.47;;;21.30;74.60;;;;;;5098808;28;20123;-66
2021/08/15 02:57:57;;;;;;;5.07;3.30;;;21.30;74.60;;;;;;5098850;28;20140;-66
2021/08/15 03:00:23;;;;;;;7.18;4.00;;;21.30;74.70;;;;;;5097283;28;20036;-66
2021/08/15 03:02:50;;;;;;;8.05;3.92;;;21.20;74.60;;;;;;5098845;28;20032;-66
2021/08/15 03:05:16;;;;;;;6.93;3.90;;;21.20;74.60;;;;;;5097437;28;20051;-66
2021/08/15 03:07:43;;;;;;;3.83;2.67;;;21.20;74.70;;;;;;5098428;28;20050;-66
2021/08/15 03:10:09;;;;;;;5.93;3.30;;;21.20;74.90;;;;;;5097444;28;20040;-65
2021/08/15 03:12:36;;;;;;;4.60;3.10;;;21.20;75.10;;;;;;5097069;28;20040;-65
2021/08/15 03:15:02;;;;;;;6.47;3.65;;;21.20;74.90;;;;;;5100130;28;20109;-65
2021/08/15 03:17:28;;;;;;;5.53;3.17;;;21.20;74.70;;;;;;5078555;28;20043;-65
2021/08/15 03:19:54;;;;;;;6.35;3.80;;;21.30;74.70;;;;;;5097188;28;20032;-65
2021/08/15 03:22:20;;;;;;;8.80;4.15;;;21.20;74.70;;;;;;5097946;28;20063;-64
2021/08/15 03:24:46;;;;;;;11.73;6.03;;;21.10;75.30;;;;;;5099729;28;20563;-65
2021/08/15 03:27:12;;;;;;;9.95;5.80;;;20.90;75.70;;;;;;5097693;28;20048;-65
2021/08/15 03:29:38;;;;;;;6.93;4.32;;;20.70;76.30;;;;;;5097056;28;20106;-65
2021/08/15 03:32:03;;;;;;;5.15;3.75;;;20.50;76.70;;;;;;5098380;28;20039;-65
2021/08/15 03:34:29;;;;;;;7.88;5.10;;;20.40;77.40;;;;;;5080344;28;20448;-64
2021/08/15 03:36:55;;;;;;;11.50;5.72;;;20.20;78.00;;;;;;5073952;28;20032;-65
2021/08/15 03:39:21;;;;;;;7.68;4.72;;;20.10;78.60;;;;;;5078855;28;20044;-67
2021/08/15 03:41:48;;;;;;;11.32;6.47;;;19.90;79.20;;;;;;5098048;28;20062;-65
2021/08/15 03:44:14;;;;;;;11.82;5.38;;;19.70;79.90;;;;;;5096909;28;20547;-66
2021/08/15 03:46:42;;;;;;;4.60;3.00;;;19.50;80.60;;;;;;5079809;28;20147;-66
2021/08/15 03:49:08;;;;;;;7.70;4.05;;;19.30;81.20;;;;;;5096574;28;20440;-65
2021/08/15 03:51:34;;;;;;;6.35;3.75;;;19.40;81.20;;;;;;5097900;28;20092;-65
2021/08/15 03:54:00;;;;;;;6.82;3.85;;;19.60;81.00;;;;;;5098964;28;20039;-65
2021/08/15 03:56:26;;;;;;;6.88;3.25;;;19.80;80.30;;;;;;5097717;28;20118;-65
2021/08/15 03:58:52;;;;;;;7.20;3.22;;;20.00;79.80;;;;;;5067856;28;20126;-66
2021/08/15 04:01:18;;;;;;;6.63;3.92;;;20.10;79.30;;;;;;5097273;28;20028;-65
2021/08/15 04:03:44;;;;;;;7.20;3.42;;;20.30;78.90;;;;;;5079958;28;20039;-65
2021/08/15 04:06:09;;;;;;;7.10;3.95;;;20.40;78.50;;;;;;5079196;28;20043;-65
2021/08/15 04:08:36;;;;;;;6.13;3.20;;;20.50;78.20;;;;;;5096625;28;20039;-66
2021/08/15 04:11:03;;;;;;;6.43;3.17;;;20.50;78.20;;;;;;5097885;28;20035;-66
2021/08/15 04:13:28;;;;;;;5.80;3.63;;;20.50;78.30;;;;;;5099228;28;20046;-66
2021/08/15 04:15:54;;;;;;;4.95;2.90;;;20.50;78.00;;;;;;5095688;28;20048;-66
2021/08/15 04:18:20;;;;;;;5.40;3.28;;;20.60;78.00;;;;;;5096931;28;20044;-66
2021/08/15 04:20:46;;;;;;;8.68;4.28;;;20.60;77.80;;;;;;5079418;28;20028;-65
2021/08/15 04:23:11;;;;;;;6.30;3.33;;;20.70;77.60;;;;;;5098305;28;20893;-65
2021/08/15 04:25:37;;;;;;;4.70;2.83;;;20.70;77.70;;;;;;5098052;28;20040;-65
2021/08/15 04:28:04;;;;;;;5.95;2.80;;;20.70;77.90;;;;;;5096867;28;20034;-65
2021/08/15 04:30:30;;;;;;;5.93;3.05;;;20.80;77.80;;;;;;5096835;28;20035;-65
2021/08/15 04:32:56;;;;;;;6.30;3.10;;;20.80;77.50;;;;;;5099406;28;20087;-65
2021/08/15 04:35:21;;;;;;;4.07;2.40;;;20.90;77.40;;;;;;5096710;28;20032;-65
2021/08/15 04:37:48;;;;;;;7.50;5.18;;;20.90;77.20;;;;;;5096075;28;20032;-66
2021/08/15 04:40:14;;;;;;;5.72;3.70;;;21.00;77.00;;;;;;5061349;28;20036;-66
2021/08/15 04:42:40;;;;;;;6.10;2.97;;;21.00;76.60;;;;;;5097580;28;20060;-66
2021/08/15 04:45:06;;;;;;;5.18;3.10;;;21.00;76.50;;;;;;5096841;28;20810;-66
2021/08/15 04:47:31;;;;;;;6.35;3.45;;;21.00;76.40;;;;;;5096777;28;20792;-66
2021/08/15 04:49:58;;;;;;;4.35;3.35;;;21.00;76.30;;;;;;5097764;28;20042;-66
2021/08/15 04:52:24;;;;;;;4.97;2.92;;;21.10;76.30;;;;;;5097837;28;20035;-66
2021/08/15 04:54:50;;;;;;;6.00;3.85;;;21.10;76.00;;;;;;5096392;28;20494;-67
2021/08/15 04:57:15;;;;;;;5.13;2.88;;;21.10;76.20;;;;;;5096426;28;20075;-67
2021/08/15 04:59:41;;;;;;;5.65;3.00;;;21.10;76.10;;;;;;5077850;28;20032;-66
2021/08/15 05:02:07;;;;;;;7.25;3.17;;;21.10;76.30;;;;;;5096798;28;20488;-66
2021/08/15 05:04:33;;;;;;;7.90;2.90;;;21.10;76.10;;;;;;5079282;28;20036;-61
2021/08/15 05:07:02;;;;;;;7.55;4.30;;;21.20;75.80;;;;;;5096578;28;20119;-61
2021/08/15 05:09:29;;;;;;;7.82;3.70;;;21.30;75.80;;;;;;5097290;28;20170;-61
2021/08/15 05:11:56;;;;;;;5.68;3.78;;;21.20;75.70;;;;;;5097907;28;20426;-61
2021/08/15 05:14:22;;;;;;;5.32;3.50;;;21.20;75.80;;;;;;5096389;28;20115;-62
2021/08/15 05:16:48;;;;;;;5.57;3.42;;;21.20;75.80;;;;;;5097310;28;20679;-62
2021/08/15 05:19:14;;;;;;;7.45;3.97;;;21.20;75.80;;;;;;5097210;28;20051;-61
2021/08/15 05:21:40;;;;;;;7.85;3.92;;;21.30;75.70;;;;;;5101495;28;20039;-61
2021/08/15 05:24:06;;;;;;;8.70;4.35;;;21.20;75.70;;;;;;5098607;28;20032;-61
2021/08/15 05:26:36;;;;;;;9.48;3.58;;;21.20;75.60;;;;;;5100395;28;20035;-61
2021/08/15 05:29:01;;;;;;;7.88;3.25;;;21.20;75.50;;;;;;5101375;28;21215;-61
2021/08/15 05:31:27;;;;;;;5.80;2.72;;;21.30;75.40;;;;;;5100415;28;20035;-61
2021/08/15 05:33:56;;;;;;;7.45;2.97;;;21.30;75.10;;;;;;5099692;28;22330;-61
2021/08/15 05:36:22;;;;;;;5.65;2.67;;;21.30;75.00;;;;;;5099762;28;20031;-61
2021/08/15 05:38:48;;;;;;;5.15;2.60;;;21.30;74.90;;;;;;5099861;28;20040;-61
2021/08/15 05:41:14;;;;;;;8.18;2.78;;;21.20;74.80;;;;;;5100554;28;20050;-61
2021/08/15 05:43:40;;;;;;;5.47;2.90;;;21.20;74.90;;;;;;5098998;28;20044;-61
2021/08/15 05:46:06;;;;;;;7.93;3.10;;;21.20;74.70;;;;;;5100487;28;20849;-62
2021/08/15 05:48:32;;;;;;;7.15;3.10;;;21.30;74.90;;;;;;5082482;28;20040;-62
2021/08/15 05:50:58;;;;;;;11.82;4.50;;;21.20;75.30;;;;;;5100745;28;20058;-62
2021/08/15 05:53:24;;;;;;;10.88;4.55;;;21.20;75.20;;;;;;5099755;28;20562;-62
2021/08/15 05:55:49;;;;;;;11.18;5.00;;;21.10;75.40;;;;;;5099643;28;20040;-61
2021/08/15 05:58:15;;;;;;;10.02;4.38;;;20.80;75.90;;;;;;5071467;28;20058;-62
2021/08/15 06:00:41;;;;;;;8.50;4.25;;;20.70;76.80;;;;;;5099668;28;20053;-62
2021/08/15 06:03:07;;;;;;;11.65;4.90;;;20.50;77.00;;;;;;5098786;28;20169;-62
2021/08/15 06:05:32;;;;;;;4.70;3.10;;;20.50;77.20;;;;;;5100936;28;20101;-62
2021/08/15 06:07:58;;;;;;;8.13;3.65;;;20.30;77.50;;;;;;5100343;28;20168;-62
2021/08/15 06:10:24;;;;;;;7.00;3.10;;;20.40;77.70;;;;;;5100013;28;20480;-62
2021/08/15 06:12:50;;;;;;;11.93;4.10;;;20.50;77.50;;;;;;5099336;28;20046;-62
2021/08/15 06:15:16;;;;;;;10.68;6.35;;;20.60;77.10;;;;;;5099142;28;20043;-63
2021/08/15 06:17:43;;;;;;;10.13;4.13;;;20.70;77.20;;;;;;5098715;28;20062;-63
2021/08/15 06:20:11;;;;;;;8.70;3.45;;;20.60;77.50;;;;;;5099746;28;20043;-62
2021/08/15 06:22:42;;;;;;;9.80;5.82;;;20.50;77.60;;;;;;5097773;28;20028;-62
2021/08/15 06:25:09;;;;;;;6.57;3.92;;;20.70;77.70;;;;;;5099598;28;20068;-62
2021/08/15 06:27:35;;;;;;;10.05;4.35;;;20.60;77.90;;;;;;5080853;28;20032;-62
2021/08/15 06:30:02;;;;;;;12.80;5.90;;;20.60;77.90;;;;;;5099234;28;20035;-62
2021/08/15 06:32:28;;;;;;;9.10;3.58;;;20.70;77.80;;;;;;5080916;28;20468;-62
2021/08/15 06:34:54;;;;;;;10.57;5.63;;;20.60;77.70;;;;;;5080133;28;20032;-64
2021/08/15 06:37:19;;;;;;;7.32;3.92;;;20.60;77.90;;;;;;5100265;28;20153;-67
2021/08/15 06:39:45;;;;;;;8.57;4.30;;;20.60;77.90;;;;;;5100088;28;20088;-68
2021/08/15 06:42:11;;;;;;;5.72;3.53;;;20.70;77.90;;;;;;5081099;28;20104;-70
2021/08/15 06:44:37;;;;;;;10.43;6.50;;;20.80;77.70;;;;;;5101056;28;20493;-70
2021/08/15 06:47:04;;;;;;;5.63;3.97;;;20.90;77.90;;;;;;5099946;28;20429;-63
2021/08/15 06:49:31;;;;;;;12.07;5.82;;;20.80;77.90;;;;;;5097785;28;20036;-62
2021/08/15 06:51:56;;;;;;;5.97;3.63;;;20.80;77.80;;;;;;5098396;28;20042;-64
2021/08/15 06:54:23;;;;;;;6.13;3.08;;;20.90;77.70;;;;;;5098547;28;20035;-64
2021/08/15 06:56:48;;;;;;;12.68;6.40;;;21.10;77.40;;;;;;5098410;28;20403;-63
2021/08/15 06:59:14;;;;;;;9.38;4.88;;;21.20;77.30;;;;;;5098619;28;20035;-63
2021/08/15 07:01:40;;;;;;;15.48;6.82;;;21.10;77.20;;;;;;5078943;28;20039;-63
2021/08/15 07:04:06;;;;;;;15.85;5.88;;;21.10;77.60;;;;;;5099144;28;20036;-63
2021/08/15 07:06:31;;;;;;;10.88;7.20;;;21.00;77.90;;;;;;5100331;28;20044;-62
2021/08/15 07:08:57;;;;;;;12.05;6.15;;;20.90;78.40;;;;;;5097635;28;20036;-63
2021/08/15 07:11:23;;;;;;;11.65;5.03;;;20.80;78.60;;;;;;5097070;28;20160;-64
2021/08/15 07:13:49;;;;;;;10.70;7.53;;;20.80;78.60;;;;;;5097973;28;20111;-63
2021/08/15 07:16:15;;;;;;;10.48;7.22;;;20.80;78.70;;;;;;5098341;28;20032;-63
2021/08/15 07:18:40;;;;;;;10.20;5.15;;;20.60;79.00;;;;;;5098012;28;20035;-64
2021/08/15 07:21:06;;;;;;;11.02;6.90;;;20.50;79.60;;;;;;5097947;28;20148;-63
2021/08/15 07:23:32;;;;;;;7.05;4.28;;;20.50;80.30;;;;;;5098597;28;20036;-63
2021/08/15 07:25:58;;;;;;;13.00;4.90;;;20.50;80.20;;;;;;5080995;28;20036;-63
2021/08/15 07:28:24;;;;;;;19.63;6.97;;;20.50;80.00;;;;;;5078762;28;20060;-63
2021/08/15 07:30:50;;;;;;;13.20;6.72;;;20.50;80.20;;;;;;5079200;28;20164;-63
2021/08/15 07:33:15;;;;;;;12.32;7.32;;;20.50;80.50;;;;;;5079307;28;20061;-63
2021/08/15 07:35:41;;;;;;;13.00;7.68;;;20.40;80.80;;;;;;5098198;28;20115;-63
2021/08/15 07:38:07;;;;;;;8.25;5.25;;;20.30;81.20;;;;;;5079232;28;22264;-63
2021/08/15 07:40:33;;;;;;;10.80;8.00;;;20.20;81.30;;;;;;5097435;28;20483;-63
2021/08/15 07:42:59;;;;;;;10.60;6.72;;;20.30;81.70;;;;;;5073868;28;20039;-62
2021/08/15 07:45:27;;;;;;;16.60;6.93;;;20.30;81.60;;;;;;5099277;28;20545;-64
2021/08/15 07:47:53;;;;;;;15.00;6.82;;;20.40;81.50;;;;;;5096912;28;20060;-64
2021/08/15 07:50:20;;;;;;;12.10;5.63;;;20.50;81.50;;;;;;5097744;28;20032;-63
2021/08/15 07:52:46;;;;;;;7.95;5.38;;;20.40;81.40;;;;;;5097477;28;20084;-64
2021/08/15 07:55:12;;;;;;;10.23;5.03;;;20.60;81.20;;;;;;5098782;28;20078;-63
2021/08/15 07:57:38;;;;;;;14.25;6.88;;;20.60;81.00;;;;;;5097116;28;20526;-63
2021/08/15 08:00:08;;;;;;;9.90;6.07;;;20.80;81.00;;;;;;5097346;28;20036;-63
2021/08/15 08:02:37;;;;;;;17.33;6.57;;;21.00;80.80;;;;;;5079191;28;20024;-63
2021/08/15 08:05:03;;;;;;;12.60;5.25;;;21.10;80.40;;;;;;5097740;28;20056;-63
2021/08/15 08:07:29;;;;;;;8.10;4.13;;;21.00;79.80;;;;;;5096274;28;20036;-63
2021/08/15 08:09:55;;;;;;;8.27;4.13;;;21.10;79.90;;;;;;5097415;28;20365;-63
2021/08/15 08:12:21;;;;;;;9.23;6.05;;;21.30;79.50;;;;;;5077857;28;20049;-62
2021/08/15 08:14:48;;;;;;;9.02;4.15;;;21.40;79.00;;;;;;5097060;28;20081;-62
2021/08/15 08:17:14;;;;;;;10.18;5.15;;;21.60;78.90;;;;;;5096766;28;20040;-63
2021/08/15 08:19:42;;;;;;;8.73;4.95;;;21.80;78.60;;;;;;5097404;28;20043;-64
2021/08/15 08:22:09;;;;;;;8.45;4.07;;;22.10;77.40;;;;;;5098803;28;20032;-63
2021/08/15 08:24:36;;;;;;;6.90;4.47;;;22.40;76.50;;;;;;5096831;28;20072;-63
2021/08/15 08:27:01;;;;;;;8.70;4.03;;;22.90;75.30;;;;;;5097317;28;20040;-66
2021/08/15 08:29:27;;;;;;;10.98;4.70;;;23.30;73.90;;;;;;5098068;28;20407;-66
2021/08/15 08:31:53;;;;;;;19.60;5.55;;;23.60;72.90;;;;;;5097529;28;20032;-63
2021/08/15 08:34:19;;;;;;;11.35;5.05;;;24.00;72.20;;;;;;5098376;28;20040;-63
2021/08/15 08:36:45;;;;;;;7.20;3.53;;;24.20;71.20;;;;;;5090292;28;20050;-63
2021/08/15 08:39:11;;;;;;;9.50;4.10;;;24.30;70.40;;;;;;5097749;28;20523;-62
2021/08/15 08:41:38;;;;;;;7.72;4.18;;;24.30;70.00;;;;;;5097998;28;20036;-62
2021/08/15 08:44:06;;;;;;;10.10;5.70;;;24.20;70.00;;;;;;5097247;28;20040;-62
2021/08/15 08:46:32;;;;;;;8.63;4.65;;;24.20;70.20;;;;;;5095938;28;20070;-62
2021/08/15 08:48:58;;;;;;;10.38;4.45;;;24.20;70.00;;;;;;5098132;28;20498;-65
2021/08/15 08:51:23;;;;;;;8.73;4.07;;;24.20;69.50;;;;;;5062367;28;20073;-63
2021/08/15 08:53:51;;;;;;;6.70;3.50;;;24.00;69.40;;;;;;5097900;28;20070;-63
2021/08/15 08:56:18;;;;;;;8.48;3.60;;;23.80;69.50;;;;;;5101471;28;20043;-61
2021/08/15 08:58:44;;;;;;;6.75;3.42;;;23.90;69.60;;;;;;5102295;28;20116;-61
2021/08/15 09:01:14;;;;;;;7.07;3.45;;;24.20;69.40;;;;;;5100084;28;20035;-59
2021/08/15 09:03:44;;;;;;;7.57;3.97;;;24.50;68.90;;;;;;5099498;28;20962;-60
2021/08/15 09:06:23;;;;;;;6.30;3.55;;;24.70;67.80;;;;;;5099856;28;20035;-61
2021/08/15 09:08:50;;;;;;;8.85;3.28;;;24.80;67.80;;;;;;5100921;28;20088;-60
2021/08/15 09:11:18;;;;;;;7.57;3.83;;;25.00;67.30;;;;;;5100469;28;21288;-61
2021/08/15 09:13:58;;;;;;;6.50;3.45;;;25.20;67.10;;;;;;5099464;28;20035;-61
2021/08/15 09:16:24;;;;;;;6.22;3.03;;;25.30;66.70;;;;;;5098769;28;20043;-61
2021/08/15 09:18:50;;;;;;;10.68;5.13;;;25.50;66.30;;;;;;5098616;28;20047;-60
2021/08/15 09:21:29;;;;;;;4.95;2.83;;;25.60;65.20;;;;;;5099913;28;20031;-61
2021/08/15 09:24:00;;;;;;;7.93;3.80;;;25.50;65.30;;;;;;5100404;28;20035;-62
2021/08/15 09:26:26;;;;;;;6.95;3.13;;;25.60;65.40;;;;;;5099611;28;20036;-61
2021/08/15 09:28:52;;;;;;;5.80;3.15;;;25.60;65.40;;;;;;5100126;28;20046;-61
2021/08/15 09:31:20;;;;;;;8.38;3.30;;;25.70;65.00;;;;;;5069111;28;20606;-61
2021/08/15 09:33:46;;;;;;;7.30;3.97;;;25.90;65.10;;;;;;5100402;28;20048;-61
2021/08/15 09:36:11;;;;;;;6.38;3.47;;;26.00;64.30;;;;;;5101523;28;20040;-62
2021/08/15 09:38:43;;;;;;;7.97;3.40;;;26.20;63.60;;;;;;5100131;28;20044;-61
2021/08/15 09:41:22;;;;;;;6.13;3.55;;;26.40;63.50;;;;;;5100640;28;20073;-62
2021/08/15 09:43:47;;;;;;;5.55;3.63;;;26.50;63.10;;;;;;5100159;28;20028;-62
2021/08/15 09:46:13;;;;;;;9.80;4.30;;;26.50;62.80;;;;;;5097011;28;20120;-62
2021/08/15 09:48:40;;;;;;;13.63;4.22;;;26.30;62.00;;;;;;5100199;28;20039;-62
2021/08/15 09:51:12;;;;;;;8.50;3.85;;;26.20;63.30;;;;;;5098665;28;20065;-61
2021/08/15 09:54:00;;;;;;;7.68;3.92;;;26.20;63.70;;;;;;5098931;28;20130;-61
2021/08/15 09:56:37;;;;;;;9.13;3.95;;;26.20;63.90;;;;;;5099781;28;20590;-60
2021/08/15 09:59:15;;;;;;;9.57;3.65;;;26.10;63.60;;;;;;5080925;28;20046;-60
2021/08/15 10:01:48;;;;;;;11.57;4.30;;;26.10;64.30;;;;;;5099656;28;20051;-61
2021/08/15 10:04:15;;;;;;;9.57;5.53;;;26.00;63.60;;;;;;5097162;28;20377;-61
2021/08/15 10:06:43;;;;;;;12.63;5.07;;;26.10;64.00;;;;;;5099291;28;20039;-62
2021/08/15 10:09:10;;;;;;;8.45;4.35;;;26.20;63.40;;;;;;5101215;28;20046;-62
2021/08/15 10:11:38;;;;;;;10.52;4.55;;;26.30;63.40;;;;;;5099459;28;20039;-61
2021/08/15 10:14:07;;;;;;;10.43;3.90;;;26.30;62.90;;;;;;5099135;28;20055;-60
2021/08/15 10:16:59;;;;;;;7.32;4.55;;;26.20;62.60;;;;;;5100999;28;20583;-61
2021/08/15 10:19:50;;;;;;;7.47;4.50;;;26.20;63.60;;;;;;5099486;28;20137;-61
2021/08/15 10:22:21;;;;;;;9.43;5.13;;;26.30;63.60;;;;;;5097275;28;20036;-69
2021/08/15 10:24:50;;;;;;;8.07;4.35;;;26.10;62.80;;;;;;5081721;28;20036;-69
2021/08/15 10:27:40;;;;;;;9.80;4.55;;;26.00;63.10;;;;;;5100658;28;20063;-70
2021/08/15 10:30:12;;;;;;;7.32;4.28;;;26.30;63.80;;;;;;5099119;28;20032;-70
2021/08/15 10:32:58;;;;;;;7.78;4.30;;;26.30;62.90;;;;;;5100360;28;20039;-69
2021/08/15 10:35:35;;;;;;;7.95;3.92;;;26.10;62.80;;;;;;5099021;28;20096;-69
2021/08/15 10:38:21;;;;;;;8.95;5.35;;;26.00;63.80;;;;;;5098256;28;20038;-69
2021/08/15 10:40:49;;;;;;;7.45;4.18;;;25.80;63.80;;;;;;5085281;28;20166;-69
2021/08/15 10:43:23;;;;;;;9.40;4.05;;;25.80;63.80;;;;;;5100720;28;20092;-69
2021/08/15 10:46:12;;;;;;;7.32;3.60;;;25.90;64.20;;;;;;5098639;28;20040;-69
2021/08/15 10:48:53;;;;;;;8.40;4.22;;;26.00;63.60;;;;;;5099249;28;20043;-69
2021/08/15 10:51:38;;;;;;;11.35;5.35;;;26.10;63.70;;;;;;5081521;28;20031;-69
2021/08/15 10:54:04;;;;;;;9.25;4.18;;;26.10;63.10;;;;;;5098228;28;20134;-69
2021/08/15 10:56:53;;;;;;;8.88;4.05;;;26.00;63.50;;;;;;5097756;28;21072;-69
2021/08/15 10:59:33;;;;;;;9.70;4.68;;;25.90;62.80;;;;;;5099068;28;20052;-71
2021/08/15 11:02:09;;;;;;;8.05;4.03;;;25.80;62.60;;;;;;5099537;28;20130;-73
2021/08/15 11:04:35;;;;;;;7.82;4.05;;;25.80;62.80;;;;;;5098164;28;20479;-73
2021/08/15 11:07:01;;;;;;;9.90;4.93;;;25.80;63.20;;;;;;5081064;28;20054;-73
2021/08/15 11:09:54;;;;;;;13.98;4.95;;;25.70;63.10;;;;;;5097880;28;20470;-73
2021/08/15 11:12:19;;;;;;;;;;;25.70;63.10;;;;;;5099917;28;20046;-73
2021/08/15 11:15:20;;;;;;;7.93;4.85;;;25.60;63.40;;;;;;5097578;28;19924;-73
2021/08/15 11:18:12;;;;;;;6.45;3.40;;;25.60;63.50;;;;;;5098301;28;20088;-73
2021/08/15 11:20:51;;;;;;;6.88;4.10;;;25.70;64.10;;;;;;5099968;28;20055;-73
2021/08/15 11:23:19;;;;;;;7.72;4.13;;;25.90;64.10;;;;;;5098071;28;20050;-73
2021/08/15 11:25:47;;;;;;;9.68;4.57;;;26.10;63.70;;;;;;5098140;28;20039;-71
2021/08/15 11:28:14;;;;;;;7.47;4.60;;;26.10;63.00;;;;;;5098748;28;20080;-73
2021/08/15 11:30:40;;;;;;;9.05;4.38;;;26.00;62.80;;;;;;5098004;28;20055;-72
2021/08/15 11:33:11;;;;;;;7.68;3.75;;;26.00;62.40;;;;;;5096271;28;20035;-73
2021/08/15 11:35:43;;;;;;;9.85;4.25;;;25.80;62.60;;;;;;5081083;28;20039;-73
2021/08/15 11:38:11;;;;;;;8.65;4.40;;;25.80;63.70;;;;;;5098964;28;20047;-71
2021/08/15 11:40:47;;;;;;;10.32;4.43;;;25.90;63.30;;;;;;5078234;28;20115;-72
2021/08/15 11:43:19;;;;;;;8.65;4.20;;;26.00;63.00;;;;;;5079125;28;20031;-72
2021/08/15 11:45:48;;;;;;;7.93;3.88;;;26.00;62.10;;;;;;5097078;28;20045;-72
2021/08/15 11:48:19;;;;;;;9.30;4.13;;;26.00;62.30;;;;;;5097893;28;20052;-72
2021/08/15 11:50:49;;;;;;;9.10;4.50;;;26.00;62.00;;;;;;5098424;28;20044;-72
2021/08/15 11:53:22;;;;;;;10.07;3.97;;;25.90;62.30;;;;;;5097780;28;20130;-72
2021/08/15 11:55:49;;;;;;;10.45;4.30;;;25.90;62.80;;;;;;5098203;28;20036;-73
2021/08/15 11:58:15;;;;;;;8.85;4.40;;;25.90;63.30;;;;;;5099192;28;20093;-72
2021/08/15 12:00:41;;;;;;;8.70;4.38;;;26.00;63.90;;;;;;5097354;28;20036;-72
2021/08/15 12:03:22;;;;;;;9.98;4.30;;;26.10;63.00;;;;;;5078357;28;20039;-72
2021/08/15 12:05:55;;;;;;;6.13;3.45;;;26.20;62.40;;;;;;5097244;28;20040;-72
2021/08/15 12:08:42;;;;;;;9.10;4.38;;;26.30;62.10;;;;;;5098193;28;20234;-71
2021/08/15 12:11:24;;;;;;;8.90;4.32;;;26.40;61.60;;;;;;5095687;28;20204;-70
2021/08/15 12:14:11;;;;;;;9.55;3.88;;;26.40;61.40;;;;;;5099985;28;20040;-69
2021/08/15 12:16:39;;;;;;;8.15;4.00;;;26.40;61.10;;;;;;5097118;28;20921;-66
2021/08/15 12:19:06;;;;;;;10.93;4.03;;;26.40;61.60;;;;;;5077054;28;20541;-67
2021/08/15 12:21:37;;;;;;;8.68;3.90;;;26.40;61.50;;;;;;5097391;28;20032;-66
2021/08/15 12:24:03;;;;;;;9.95;4.07;;;26.40;61.90;;;;;;5097623;28;20032;-66
2021/08/15 12:26:31;;;;;;;8.85;3.78;;;26.30;61.50;;;;;;5099159;28;20414;-66
2021/08/15 12:29:00;;;;;;;7.28;3.42;;;26.30;60.80;;;;;;5099581;28;20059;-66
2021/08/15 12:31:28;;;;;;;6.90;3.53;;;26.40;61.10;;;;;;5102147;28;20035;-67
2021/08/15 12:34:11;;;;;;;9.05;4.30;;;26.40;60.90;;;;;;5102289;28;20036;-67
2021/08/15 12:36:42;;;;;;;7.82;4.03;;;26.40;60.60;;;;;;5102402;28;20047;-67
2021/08/15 12:39:08;;;;;;;7.60;3.47;;;26.40;61.00;;;;;;5102271;28;20044;-67
2021/08/15 12:41:48;;;;;;;6.38;3.60;;;26.40;60.60;;;;;;5102548;28;20293;-69
2021/08/15 12:44:17;;;;;;;6.47;3.85;;;26.40;60.60;;;;;;5102103;28;20032;-69
2021/08/15 12:46:43;;;;;;;11.23;4.30;;;26.30;60.20;;;;;;5102626;28;20046;-67
2021/08/15 12:49:26;;;;;;;9.60;4.53;;;26.10;60.10;;;;;;5102310;28;20032;-66
2021/08/15 12:52:10;;;;;;;5.88;3.63;;;26.20;60.60;;;;;;5100435;28;20096;-66